CDF2 weather

Teeswater (Dent Field)
Ontario, Canada

Public forecast

Using degrees Celsius for public forecast. Weather courtesy of forecast.io.

Closest aviation weather report (METAR) to Teeswater (Dent Field)

Closest report is Wiarton Airport, 45.8 nm (84.9 km) N. Retrieved 2020/01/23 07:00 UTC (22 minutes ago):

CYVV 230700Z 19010KT 15SM SCT090 BKN250 M04/M07 A3019 RMK AS4CI2 SLP237

Closest aviation forecast (TAF) to Teeswater (Dent Field)

Forecast is more than 6 hours old.

Closest forecast is Wiarton Airport, 45.8 nm (84.9 km) N. Retrieved 2020/01/22 20:00 UTC (11 hours ago):

TAF CYVV 221938Z 2220/2224 21015G25KT P6SM FEW020 BKN240 RMK NXT FCST WILL BE ISSUED AT 231145Z